LIBD Airport Information

Runway Information
Runway 07 Length 9843 ft width 148 ft Elevation 176 ft Threshold 1234 ft Heading 67
Runway 25 Length 9843 ft Width 148 ft Elevation 108 ft Threshold N/A Heading 247
Runway 12 Length 512 ft width 164 ft Elevation 108 ft Threshold N/A Heading 123
Runway 30 Length 512 ft Width 164 ft Elevation 108 ft Threshold N/A Heading 303
Airport Frequencies
Type APP Name APP Frequency 119.5 MHZ
Type TWR Name TWR Frequency 118.3 MHZ
Airport Navaids
Type VOR-DME Name Bari Frequency 116400 KHZ
Airport Weather Information & NOTAM
ADDS - METARS form results

(0149 UTC 08 December 2022)
Data provider http://aviationweather.gov/metar/data/
 
METAR text: LIBD 080120Z 20003KT CAVOK 09/09 Q1012
Conditions at: LIBD (BARI/PALESE MACC, IT) observed 0120 UTC 08 December 2022
Temperature: 9.0°C (48°F)
Dewpoint: 9.0°C (48°F) [RH = 100%]
Pressure (altimeter): 29.88 inches Hg (1012.0 mb)
Winds: from the SSW (200 degrees) at 3 MPH (3 knots; 1.5 m/s)
Visibility: 6 or more miles (10+ km)
Ceiling: ceiling and visibility are OK
Clouds: unknown
Weather: no significant weather observed at this time

METAR text: LIBD 080050Z 22005KT CAVOK 09/09 Q1012
Conditions at: LIBD (BARI/PALESE MACC, IT) observed 0050 UTC 08 December 2022
Temperature: 9.0°C (48°F)
Dewpoint: 9.0°C (48°F) [RH = 100%]
Pressure (altimeter): 29.88 inches Hg (1012.0 mb)
Winds: from the SW (220 degrees) at 6 MPH (5 knots; 2.6 m/s)
Visibility: 6 or more miles (10+ km)
Ceiling: ceiling and visibility are OK
Clouds: unknown
Weather: no significant weather observed at this time

Forecast for: LIBD (BARI/PALESE MACC, IT)
Text: TAF LIBD 072300Z 0800/0824 21006KT 8000 FEW030
Forecast period: 0000 UTC 08 December 2022 to 0000 UTC 09 December 2022
Forecast type: FROM: standard forecast or significant change
Winds: from the SSW (210 degrees) at 7 MPH (6 knots; 3.1 m/s)
Visibility: 5 miles (8 km)
Ceiling: at least 12,000 feet AGL
Clouds: few clouds at 3000 feet AGL
Weather: no significant weather forecast for this period
Text: TEMPO 0800/0804 3000 BR
Forecast period: 0000 to 0400 UTC 08 December 2022
Forecast type: TEMPORARY: The following changes expected for less than half the time period
Visibility: 1.86 miles (2.99 km)
Ceiling: unknown
Clouds: missing
Weather: BR  (mist)